Time;durP1;ratioP1;P1;durP2;ratioP2;P2;SDS_P1;SDS_P2;PMS_P1;PMS_P2;Temp;Humidity;BMP_temperature;BMP_pressure;BME280_temperature;BME280_humidity;BME280_pressure;Samples;Min_cycle;Max_cycle;Signal;HPM_P1;HPM_P2
2023/07/02 00:01:05;;;;;;;5.10;2.35;;;;;;;17.61;85.52;99833.56;7401949;19;20038;-66
2023/07/02 00:03:33;;;;;;;3.50;2.13;;;;;;;17.60;84.86;99837.16;7400221;19;20473;-65
2023/07/02 00:06:02;;;;;;;2.08;1.88;;;;;;;17.62;84.97;99839.72;7399071;19;20023;-67
2023/07/02 00:08:30;;;;;;;5.68;1.88;;;;;;;17.61;84.94;99848.63;7398923;19;20022;-67
2023/07/02 00:10:59;;;;;;;2.53;1.73;;;;;;;17.59;84.70;99841.63;7401679;19;20039;-67
2023/07/02 00:13:30;;;;;;;2.53;2.20;;;;;;;17.59;84.72;99848.69;7400516;19;20035;-66
2023/07/02 00:15:58;;;;;;;2.70;1.85;;;;;;;17.57;84.92;99851.47;7402017;19;20022;-67
2023/07/02 00:18:33;;;;;;;3.80;1.77;;;;;;;17.58;84.78;99854.97;7401519;19;20025;-67
2023/07/02 00:21:02;;;;;;;3.95;2.13;;;;;;;17.56;84.99;99846.28;7401936;19;20043;-67
2023/07/02 00:23:31;;;;;;;6.57;2.10;;;;;;;17.56;84.72;99851.56;7400074;19;20022;-66
2023/07/02 00:25:59;;;;;;;5.60;2.25;;;;;;;17.56;84.76;99840.97;7398933;19;20014;-67
2023/07/02 00:28:30;;;;;;;3.80;2.35;;;;;;;17.55;84.92;99853.38;7401201;19;20105;-66
2023/07/02 00:30:59;;;;;;;3.28;2.10;;;;;;;17.56;84.76;99846.28;7401555;19;20025;-66
2023/07/02 00:33:28;;;;;;;3.17;2.08;;;;;;;17.55;84.87;99847.22;7399811;19;20039;-67
2023/07/02 00:35:57;;;;;;;3.35;2.38;;;;;;;17.54;84.40;99842.84;7400517;19;20377;-66
2023/07/02 00:38:26;;;;;;;5.25;2.22;;;;;;;17.54;84.58;99845.50;7400458;19;20007;-67
2023/07/02 00:40:54;;;;;;;2.35;1.83;;;;;;;17.54;84.50;99848.16;7398161;19;20023;-66
2023/07/02 00:43:23;;;;;;;3.92;2.13;;;;;;;17.53;84.71;99841.19;7399307;19;20081;-66
2023/07/02 00:45:54;;;;;;;3.47;2.10;;;;;;;17.52;84.84;99839.47;7398008;19;20018;-66
2023/07/02 00:48:23;;;;;;;3.05;1.60;;;;;;;17.51;84.38;99854.50;7400902;19;20018;-66
2023/07/02 00:50:51;;;;;;;2.85;2.10;;;;;;;17.51;84.51;99848.38;7400061;19;20026;-65
2023/07/02 00:53:20;;;;;;;3.53;2.30;;;;;;;17.47;84.44;99855.66;7397835;19;20035;-65
2023/07/02 00:56:01;;;;;;;5.07;2.50;;;;;;;17.48;84.37;99859.16;7398436;19;20028;-67
2023/07/02 00:58:30;;;;;;;4.18;2.30;;;;;;;17.48;84.09;99860.03;7397357;19;20117;-67
2023/07/02 01:01:02;;;;;;;2.40;2.20;;;;;;;17.47;84.15;99860.13;7397528;19;20485;-67
2023/07/02 01:03:32;;;;;;;2.17;1.85;;;;;;;17.47;84.11;99852.19;7397815;19;20014;-67
2023/07/02 01:06:01;;;;;;;2.50;2.30;;;;;;;17.44;84.55;99861.19;7398832;19;20033;-67
2023/07/02 01:08:29;;;;;;;2.92;2.22;;;;;;;17.43;84.39;99855.00;7399822;19;20090;-67
2023/07/02 01:10:58;;;;;;;2.00;1.80;;;;;;;17.42;84.25;99853.31;7399856;19;20022;-67
2023/07/02 01:13:28;;;;;;;2.40;2.10;;;;;;;17.42;84.23;99855.97;7399455;19;20023;-65
2023/07/02 01:15:58;;;;;;;3.67;2.35;;;;;;;17.42;84.12;99860.41;7399285;19;20485;-65
2023/07/02 01:18:29;;;;;;;3.35;2.05;;;;;;;17.41;84.10;99851.63;7399547;19;20031;-65
2023/07/02 01:21:01;;;;;;;5.32;2.35;;;;;;;17.40;84.80;99864.97;7399934;19;20022;-65
2023/07/02 01:23:30;;;;;;;2.33;2.00;;;;;;;17.39;84.01;99861.47;7398669;19;20025;-65
2023/07/02 01:25:58;;;;;;;5.32;2.20;;;;;;;17.39;84.53;99865.94;7397955;19;20022;-65
2023/07/02 01:28:27;;;;;;;3.15;2.30;;;;;;;17.38;84.53;99866.88;7396764;19;20014;-65
2023/07/02 01:30:55;;;;;;;4.07;2.70;;;;;;;17.37;84.22;99863.34;7398480;19;20381;-65
2023/07/02 01:33:24;;;;;;;3.28;2.08;;;;;;;17.37;84.45;99866.00;7397545;19;20414;-65
2023/07/02 01:35:52;;;;;;;2.70;2.50;;;;;;;17.36;84.00;99867.00;7398936;19;20029;-65
2023/07/02 01:38:23;;;;;;;3.97;2.88;;;;;;;17.35;84.33;99873.22;7398568;19;20427;-65
2023/07/02 01:40:52;;;;;;;3.42;2.78;;;;;;;17.34;83.84;99874.19;7399375;19;20022;-65
2023/07/02 01:43:20;;;;;;;2.60;2.40;;;;;;;17.32;83.72;99876.06;7396489;19;20044;-65
2023/07/02 01:45:49;;;;;;;3.80;2.70;;;;;;;17.31;83.61;99874.34;7396267;19;20419;-65
2023/07/02 01:48:17;;;;;;;3.28;2.95;;;;;;;17.29;83.62;99870.97;7398475;19;20022;-64
2023/07/02 01:50:46;;;;;;;3.30;3.00;;;;;;;17.28;83.89;99866.63;7398528;19;20015;-65
2023/07/02 01:53:14;;;;;;;3.67;2.95;;;;;;;17.29;83.57;99862.16;7397287;19;20036;-65
2023/07/02 01:55:45;;;;;;;3.00;2.80;;;;;;;17.28;83.64;99855.16;7398336;19;20007;-64
2023/07/02 01:58:14;;;;;;;3.47;3.00;;;;;;;17.27;83.23;99870.19;7396969;19;20066;-65
2023/07/02 02:00:42;;;;;;;3.45;2.90;;;;;;;17.26;83.42;99871.16;7398212;19;20019;-64
2023/07/02 02:03:11;;;;;;;6.28;2.97;;;;;;;17.24;83.30;99876.56;7395466;19;20433;-65
2023/07/02 02:05:39;;;;;;;4.13;3.00;;;;;;;17.24;83.21;99881.00;7397299;19;20018;-65
2023/07/02 02:08:08;;;;;;;4.15;3.20;;;;;;;17.23;82.90;99881.97;7397499;19;20520;-65
2023/07/02 02:10:36;;;;;;;4.85;3.08;;;;;;;17.23;83.26;99880.16;7397812;19;20018;-67
2023/07/02 02:13:07;;;;;;;3.10;2.80;;;;;;;17.24;83.09;99878.38;7397169;19;20426;-66
2023/07/02 02:15:36;;;;;;;4.07;3.05;;;;;;;17.24;82.74;99878.38;7396253;19;20026;-65
2023/07/02 02:18:05;;;;;;;6.15;3.38;;;;;;;17.22;83.10;99874.94;7397621;19;20033;-65
2023/07/02 02:20:33;;;;;;;5.97;3.65;;;;;;;17.21;83.16;99873.25;7395296;19;20511;-66
2023/07/02 02:23:02;;;;;;;4.40;3.15;;;;;;;17.19;82.92;99862.75;7396541;19;20031;-65
2023/07/02 02:25:30;;;;;;;3.30;3.00;;;;;;;17.17;82.97;99867.28;7396477;19;20010;-65
2023/07/02 02:27:59;;;;;;;4.00;2.88;;;;;;;17.16;82.91;99870.91;7397182;19;20035;-65
2023/07/02 02:30:30;;;;;;;3.70;2.80;;;;;;;17.15;82.86;99870.97;7397095;19;20018;-65
2023/07/02 02:32:58;;;;;;;3.80;3.50;;;;;;;17.15;82.97;99873.63;7396894;19;20032;-64
2023/07/02 02:35:27;;;;;;;3.42;3.05;;;;;;;17.13;82.91;99870.25;7396399;19;20018;-65
2023/07/02 02:37:55;;;;;;;4.82;2.97;;;;;;;17.10;82.94;99871.28;7395188;19;20019;-65
2023/07/02 02:40:24;;;;;;;3.35;3.05;;;;;;;17.09;83.09;99878.38;7396702;19;20027;-67
2023/07/02 02:42:52;;;;;;;4.50;3.63;;;;;;;17.06;82.86;99886.53;7396227;19;20039;-65
2023/07/02 02:45:21;;;;;;;4.32;3.00;;;;;;;17.03;83.00;99881.41;7396038;19;20010;-65
2023/07/02 02:47:52;;;;;;;4.57;3.88;;;;;;;16.99;83.07;99885.19;7394854;19;20035;-65
2023/07/02 02:50:20;;;;;;;4.10;3.70;;;;;;;16.98;82.74;99887.94;7396869;19;20039;-65
2023/07/02 02:52:49;;;;;;;3.55;3.10;;;;;;;16.95;82.77;99883.69;7395650;19;20022;-66
2023/07/02 02:55:17;;;;;;;6.32;3.67;;;;;;;16.93;82.90;99894.41;7394663;19;20019;-65
2023/07/02 02:57:45;;;;;;;4.53;3.05;;;;;;;16.91;82.47;99890.97;7393647;19;20474;-66
2023/07/02 03:00:16;;;;;;;3.85;3.20;;;;;;;16.90;82.69;99896.34;7396186;19;20059;-65
2023/07/02 03:02:45;;;;;;;3.30;3.00;;;;;;;16.88;82.90;99891.16;7394850;19;20037;-65
2023/07/02 03:05:16;;;;;;;5.63;3.50;;;;;;;16.88;82.86;99887.63;7395906;19;20024;-65
2023/07/02 03:07:45;;;;;;;3.38;3.08;;;;;;;16.87;82.50;99893.88;7397595;19;20107;-67
2023/07/02 03:10:13;;;;;;;3.50;3.00;;;;;;;16.87;82.50;99892.09;7395450;19;20028;-66
2023/07/02 03:12:42;;;;;;;5.63;3.50;;;;;;;16.87;82.77;99891.22;7394705;19;20018;-67
2023/07/02 03:15:11;;;;;;;3.83;3.08;;;;;;;16.84;82.34;99886.97;7393787;19;20026;-67
2023/07/02 03:17:40;;;;;;;3.17;2.88;;;;;;;16.83;82.10;99892.34;7395684;19;20015;-66
2023/07/02 03:20:10;;;;;;;3.50;3.00;;;;;;;16.82;82.04;99898.59;7395597;19;20029;-67
2023/07/02 03:22:41;;;;;;;3.40;3.03;;;;;;;16.81;82.26;99896.88;7395019;19;20026;-66
2023/07/02 03:25:11;;;;;;;4.53;2.92;;;;;;;16.80;81.97;99888.09;7395663;19;20355;-67
2023/07/02 03:27:39;;;;;;;4.05;2.80;;;;;;;16.76;81.78;99890.09;7393300;19;20077;-66
2023/07/02 03:30:10;;;;;;;4.82;2.60;;;;;;;16.77;81.61;99890.94;7395463;19;20035;-67
2023/07/02 03:32:38;;;;;;;3.90;2.75;;;;;;;16.77;81.51;99893.59;7395085;19;20039;-67
2023/07/02 03:35:08;;;;;;;4.63;2.67;;;;;;;16.77;81.11;99905.03;7393068;19;20010;-67
2023/07/02 03:37:36;;;;;;;3.58;2.95;;;;;;;16.76;80.90;99905.97;7395205;19;20027;-66
2023/07/02 03:40:09;;;;;;;3.72;3.00;;;;;;;16.75;80.70;99898.13;7395078;19;20026;-67
2023/07/02 03:42:37;;;;;;;6.28;2.90;;;;;;;16.73;80.73;99898.22;7394529;19;20027;-67
2023/07/02 03:45:06;;;;;;;3.65;2.95;;;;;;;16.73;80.58;99905.31;7392933;19;20015;-67
2023/07/02 03:47:35;;;;;;;4.82;3.40;;;;;;;16.74;80.70;99901.72;7392623;19;20452;-67
2023/07/02 03:50:03;;;;;;;4.35;2.70;;;;;;;16.75;80.47;99909.56;7393965;19;20503;-65
2023/07/02 03:52:32;;;;;;;4.43;3.38;;;;;;;16.76;80.39;99911.28;7392817;19;20022;-68
2023/07/02 03:55:00;;;;;;;6.28;3.28;;;;;;;16.77;80.52;99910.34;7394465;19;20514;-66
2023/07/02 03:57:31;;;;;;;5.05;3.03;;;;;;;16.80;80.35;99916.41;7393138;19;20007;-67
2023/07/02 04:00:00;;;;;;;4.18;2.70;;;;;;;16.77;80.27;99918.28;7395107;19;20011;-67
2023/07/02 04:02:28;;;;;;;3.33;2.70;;;;;;;16.77;80.05;99923.56;7394059;19;20484;-67
2023/07/02 04:04:57;;;;;;;3.47;2.30;;;;;;;16.78;80.29;99927.94;7394223;19;20014;-65
2023/07/02 04:07:26;;;;;;;3.83;2.50;;;;;;;16.80;80.11;99932.28;7392751;19;20019;-67
2023/07/02 04:09:54;;;;;;;2.83;2.53;;;;;;;16.81;80.25;99931.31;7393993;19;20014;-67
2023/07/02 04:12:23;;;;;;;4.03;2.42;;;;;;;16.82;79.70;99925.09;7394266;19;20036;-67
2023/07/02 04:14:54;;;;;;;3.80;3.10;;;;;;;16.83;79.90;99942.69;7392152;19;20027;-67
2023/07/02 04:17:22;;;;;;;20.63;14.13;;;;;;;16.84;79.77;99944.41;7393779;19;20032;-67
2023/07/02 04:19:51;;;;;;;3.17;2.90;;;;;;;16.85;79.54;99957.53;7394111;19;20026;-67
2023/07/02 04:22:19;;;;;;;4.20;2.83;;;;;;;16.87;79.46;99949.50;7391957;19;20018;-67
2023/07/02 04:24:48;;;;;;;5.53;3.45;;;;;;;16.89;79.38;99953.75;7392597;19;20015;-67
2023/07/02 04:27:17;;;;;;;3.13;2.83;;;;;;;16.90;79.24;99949.31;7399386;19;20369;-67
2023/07/02 04:29:45;;;;;;;3.40;2.90;;;;;;;16.91;79.34;99949.25;7400963;19;20015;-67
2023/07/02 04:32:16;;;;;;;4.45;2.90;;;;;;;16.93;79.18;99949.16;7401129;19;20018;-66
2023/07/02 04:34:45;;;;;;;4.07;2.72;;;;;;;16.96;78.81;99941.03;7398484;19;20560;-67
2023/07/02 04:37:15;;;;;;;3.20;2.90;;;;;;;17.00;79.06;99949.66;7401007;19;20022;-67
2023/07/02 04:39:43;;;;;;;5.50;2.85;;;;;;;17.02;78.89;99943.31;7400963;19;20032;-67
2023/07/02 04:42:13;;;;;;;5.50;2.80;;;;;;;17.04;78.25;99946.69;7400852;19;20074;-67
2023/07/02 04:44:43;;;;;;;4.03;2.90;;;;;;;17.07;77.90;99957.13;7397970;19;20015;-67
2023/07/02 04:47:12;;;;;;;4.85;3.10;;;;;;;17.08;77.90;99961.47;7398661;19;20033;-67
2023/07/02 04:49:43;;;;;;;5.65;2.95;;;;;;;17.12;77.37;99963.94;7400113;19;20038;-67
2023/07/02 04:52:11;;;;;;;4.13;3.17;;;;;;;17.12;77.03;99974.53;7400040;19;20086;-67
2023/07/02 04:54:40;;;;;;;4.68;3.05;;;;;;;17.14;77.48;99972.66;7398065;19;20094;-67
2023/07/02 04:57:08;;;;;;;4.22;2.75;;;;;;;17.16;76.89;99966.31;7398661;19;20023;-67
2023/07/02 04:59:37;;;;;;;4.43;2.78;;;;;;;17.20;76.89;99966.94;7397804;19;20031;-67
2023/07/02 05:02:05;;;;;;;3.38;2.88;;;;;;;17.24;76.11;99952.59;7399611;19;20031;-67
2023/07/02 05:04:34;;;;;;;3.50;2.50;;;;;;;17.28;76.16;99954.09;7397855;19;20018;-67
2023/07/02 05:07:05;;;;;;;3.03;2.50;;;;;;;17.30;75.54;99956.63;7397355;19;20077;-67
2023/07/02 05:09:34;;;;;;;4.60;2.85;;;;;;;17.33;75.71;99961.75;7400387;19;20018;-67
2023/07/02 05:12:02;;;;;;;4.45;2.88;;;;;;;17.35;75.35;99971.31;7399566;19;20026;-67
2023/07/02 05:14:31;;;;;;;2.70;2.50;;;;;;;17.38;75.21;99963.16;7397073;19;20496;-67
2023/07/02 05:16:59;;;;;;;2.60;2.40;;;;;;;17.40;74.97;99963.94;7398887;19;20024;-67
2023/07/02 05:19:28;;;;;;;3.03;2.50;;;;;;;17.41;74.28;99970.06;7399238;19;20019;-67
2023/07/02 05:21:56;;;;;;;4.20;2.63;;;;;;;17.42;74.04;99963.81;7398842;19;20506;-67
2023/07/02 05:24:27;;;;;;;3.30;2.70;;;;;;;17.45;73.99;99979.53;7396933;19;20039;-67
2023/07/02 05:26:56;;;;;;;3.72;2.50;;;;;;;17.49;73.61;99983.72;7397902;19;20477;-67
2023/07/02 05:29:24;;;;;;;3.42;2.40;;;;;;;17.54;73.47;99980.75;7399029;19;20019;-67
2023/07/02 05:31:53;;;;;;;3.30;2.60;;;;;;;17.58;73.33;99977.81;7399030;19;20019;-66
2023/07/02 05:34:21;;;;;;;3.03;2.50;;;;;;;17.61;72.91;99990.03;7397013;19;20022;-67
2023/07/02 05:36:50;;;;;;;4.18;2.25;;;;;;;17.61;72.45;99991.84;7396203;19;20011;-67
2023/07/02 05:39:18;;;;;;;4.28;2.65;;;;;;;17.59;72.37;99992.78;7398844;19;20023;-67
2023/07/02 05:41:49;;;;;;;2.83;2.42;;;;;;;17.63;72.32;99987.28;7398793;19;20022;-67
2023/07/02 05:44:18;;;;;;;4.55;2.65;;;;;;;17.63;72.38;99987.28;7396530;19;20026;-67
2023/07/02 05:46:47;;;;;;;3.28;2.30;;;;;;;17.59;71.39;100000.75;7397558;19;20041;-67
2023/07/02 05:49:16;;;;;;;4.85;2.60;;;;;;;17.56;70.90;100000.91;7398522;19;20073;-67
2023/07/02 05:51:44;;;;;;;4.20;2.38;;;;;;;17.55;70.85;99991.28;7398091;19;20027;-67
2023/07/02 05:54:13;;;;;;;7.07;2.58;;;;;;;17.56;71.43;99994.78;7396261;19;20019;-67
2023/07/02 05:56:41;;;;;;;5.43;2.50;;;;;;;17.57;71.33;100004.44;7397292;19;20014;-67
2023/07/02 05:59:17;;;;;;;4.75;2.38;;;;;;;17.58;71.05;100003.50;7395857;19;20501;-68
2023/07/02 06:01:46;;;;;;;2.85;2.42;;;;;;;17.59;71.21;100010.47;7396492;19;20023;-67
2023/07/02 06:04:14;;;;;;;4.10;2.28;;;;;;;17.53;69.86;100017.03;7396197;19;20027;-67
2023/07/02 06:06:43;;;;;;;3.78;2.35;;;;;;;17.54;70.16;100007.28;7397138;19;20018;-67
2023/07/02 06:09:18;;;;;;;3.55;2.55;;;;;;;17.53;68.86;100002.94;7397594;19;20022;-67
2023/07/02 06:11:46;;;;;;;3.92;2.17;;;;;;;17.53;69.41;100006.44;7397093;19;20010;-68
2023/07/02 06:14:18;;;;;;;3.08;2.40;;;;;;;17.52;68.30;100003.88;7395883;19;20014;-66
2023/07/02 06:16:46;;;;;;;3.45;2.30;;;;;;;17.54;68.74;100001.97;7395434;19;20014;-66
2023/07/02 06:19:15;;;;;;;3.65;2.25;;;;;;;17.57;68.89;100004.44;7397533;19;20027;-66
2023/07/02 06:21:49;;;;;;;7.70;2.60;;;;;;;17.63;67.75;100000.53;7397223;19;20090;-66
2023/07/02 06:24:18;;;;;;;3.47;2.50;;;;;;;17.64;66.53;100020.81;7395601;19;20022;-66
2023/07/02 06:26:46;;;;;;;4.47;2.05;;;;;;;17.67;67.10;100005.56;7394971;19;20018;-66
2023/07/02 06:29:17;;;;;;;3.25;2.10;;;;;;;17.69;66.86;100001.03;7397211;19;20010;-67
2023/07/02 06:31:46;;;;;;;3.20;1.90;;;;;;;17.74;66.16;100008.66;7397532;19;20014;-67
2023/07/02 06:34:15;;;;;;;4.38;2.40;;;;;;;17.79;65.94;100000.44;7395656;19;20019;-67
2023/07/02 06:36:43;;;;;;;5.15;2.70;;;;;;;17.82;65.06;99997.56;7395102;19;20010;-66
2023/07/02 06:39:12;;;;;;;3.72;2.30;;;;;;;17.82;65.27;100002.88;7396771;19;20018;-66
2023/07/02 06:41:40;;;;;;;3.00;2.22;;;;;;;17.86;64.84;100010.56;7394449;19;20011;-67
2023/07/02 06:44:09;;;;;;;3.90;2.50;;;;;;;17.94;65.38;100003.94;7395284;19;20018;-67
2023/07/02 06:46:40;;;;;;;4.00;2.58;;;;;;;18.06;64.34;100001.34;7396472;19;20023;-68
2023/07/02 06:49:09;;;;;;;3.53;2.10;;;;;;;18.20;63.63;100012.88;7394401;19;20018;-68
2023/07/02 06:51:37;;;;;;;4.93;2.50;;;;;;;18.32;63.38;100003.25;7394726;19;20014;-67
2023/07/02 06:54:06;;;;;;;3.15;2.42;;;;;;;18.42;62.82;100000.81;7395063;19;20022;-68
2023/07/02 06:56:34;;;;;;;3.28;1.90;;;;;;;18.54;62.44;100010.66;7393522;19;20477;-67
2023/07/02 06:59:09;;;;;;;3.45;2.40;;;;;;;18.66;60.40;100003.66;7394400;19;20511;-67
2023/07/02 07:01:40;;;;;;;3.67;2.17;;;;;;;18.73;61.20;100018.22;7396260;19;20014;-67
2023/07/02 07:04:08;;;;;;;3.50;2.58;;;;;;;18.75;61.33;100007.47;7395127;19;20073;-67
2023/07/02 07:06:37;;;;;;;4.13;2.30;;;;;;;18.82;61.01;100022.06;7395881;19;20035;-66
2023/07/02 07:09:05;;;;;;;7.85;2.70;;;;;;;18.88;60.80;100009.19;7395426;19;20375;-68
2023/07/02 07:11:34;;;;;;;3.42;2.35;;;;;;;18.96;60.88;100006.03;7395835;19;20006;-68
2023/07/02 07:14:02;;;;;;;4.35;2.28;;;;;;;19.02;60.28;100002.97;7394220;19;20035;-67
2023/07/02 07:16:31;;;;;;;5.05;1.90;;;;;;;19.08;59.44;100017.63;7395715;19;20010;-66
2023/07/02 07:19:02;;;;;;;4.22;2.25;;;;;;;19.07;57.30;99999.13;7393657;19;20027;-66
2023/07/02 07:21:30;;;;;;;6.57;2.40;;;;;;;19.02;57.38;100008.28;7395798;19;20035;-66
2023/07/02 07:23:59;;;;;;;2.97;2.15;;;;;;;19.01;58.62;100013.72;7395208;19;20015;-65
2023/07/02 07:26:28;;;;;;;5.47;2.53;;;;;;;19.02;58.06;100012.75;7393717;19;20018;-65
2023/07/02 07:28:57;;;;;;;3.00;1.98;;;;;;;19.07;58.23;100015.09;7393669;19;20022;-65
2023/07/02 07:31:26;;;;;;;5.35;2.30;;;;;;;19.15;58.54;100018.09;7395379;19;20078;-65
2023/07/02 07:33:54;;;;;;;3.63;2.30;;;;;;;19.24;58.04;100022.75;7394008;19;20023;-65
2023/07/02 07:36:25;;;;;;;6.43;2.30;;;;;;;19.28;57.21;100026.03;7395302;19;20027;-65
2023/07/02 07:38:54;;;;;;;4.43;2.30;;;;;;;19.34;57.88;100017.66;7395521;19;20018;-65
2023/07/02 07:41:22;;;;;;;2.80;1.75;;;;;;;19.40;57.74;100022.53;7394495;19;20015;-65
2023/07/02 07:43:51;;;;;;;2.72;2.20;;;;;;;19.45;57.51;100022.19;7393765;19;20018;-65
2023/07/02 07:46:19;;;;;;;3.25;2.38;;;;;;;19.49;57.02;100032.53;7394582;19;20015;-65
2023/07/02 07:48:48;;;;;;;3.30;2.28;;;;;;;19.53;56.48;100036.66;7393090;19;20015;-65
2023/07/02 07:51:16;;;;;;;5.70;2.55;;;;;;;19.56;56.39;100024.94;7394697;19;20018;-65
2023/07/02 07:53:47;;;;;;;3.35;2.17;;;;;;;19.56;55.64;100022.28;7392805;19;20064;-65
2023/07/02 07:56:16;;;;;;;4.30;1.98;;;;;;;19.60;55.45;100038.88;7393016;19;20023;-65
2023/07/02 07:58:44;;;;;;;2.95;1.92;;;;;;;19.60;55.55;100045.06;7392619;19;20501;-63
2023/07/02 08:01:13;;;;;;;6.88;2.03;;;;;;;19.62;54.87;100037.81;7399794;19;20022;-65
2023/07/02 08:03:41;;;;;;;3.50;2.03;;;;;;;19.67;54.34;100035.66;7400191;19;20022;-65
2023/07/02 08:06:10;;;;;;;5.28;1.90;;;;;;;19.68;53.47;100052.50;7398385;19;20481;-65
2023/07/02 08:08:38;;;;;;;3.03;2.25;;;;;;;19.68;54.47;100048.03;7399286;19;20039;-65
2023/07/02 08:11:09;;;;;;;4.00;1.60;;;;;;;19.66;53.83;100038.44;7401581;19;20018;-65
2023/07/02 08:13:38;;;;;;;3.20;1.92;;;;;;;19.64;54.25;100037.72;7399086;19;20019;-65
2023/07/02 08:16:09;;;;;;;3.05;1.80;;;;;;;19.60;54.05;100042.41;7398674;19;20019;-65
2023/07/02 08:18:37;;;;;;;7.07;2.08;;;;;;;19.57;54.30;100041.78;7400888;19;20489;-65
2023/07/02 08:21:06;;;;;;;2.40;2.08;;;;;;;19.53;54.79;100035.81;7398635;19;20022;-65
2023/07/02 08:23:34;;;;;;;2.88;1.75;;;;;;;19.52;55.17;100042.97;7399985;19;20078;-66
2023/07/02 08:26:03;;;;;;;4.13;2.35;;;;;;;19.49;55.88;100042.31;7401169;19;20010;-65
2023/07/02 08:28:34;;;;;;;3.42;1.98;;;;;;;19.49;56.16;100043.16;7399338;19;20027;-65
2023/07/02 08:31:02;;;;;;;2.63;2.10;;;;;;;19.47;55.67;100052.19;7398642;19;20022;-65
2023/07/02 08:33:31;;;;;;;3.65;2.10;;;;;;;19.47;55.91;100057.53;7399357;19;20431;-64
2023/07/02 08:36:00;;;;;;;3.10;2.30;;;;;;;19.44;55.74;100061.25;7397815;19;20018;-65
2023/07/02 08:38:29;;;;;;;3.35;2.15;;;;;;;19.42;55.38;100054.34;7400179;19;20014;-65
2023/07/02 08:40:57;;;;;;;2.45;2.25;;;;;;;19.41;55.54;100071.25;7400123;19;20033;-66
2023/07/02 08:43:28;;;;;;;4.45;2.45;;;;;;;19.36;55.25;100059.13;7397466;19;20477;-65
2023/07/02 08:46:00;;;;;;;5.68;2.65;;;;;;;19.35;55.62;100075.19;7401099;19;20027;-65
2023/07/02 08:48:29;;;;;;;3.90;2.90;;;;;;;19.33;55.57;100064.66;7397508;19;20027;-66
2023/07/02 08:50:58;;;;;;;5.78;3.10;;;;;;;19.25;55.84;100069.66;7397493;19;20411;-64
2023/07/02 08:53:29;;;;;;;5.80;2.78;;;;;;;19.13;57.47;100100.63;7398022;19;20481;-65
2023/07/02 08:55:58;;;;;;;4.03;2.85;;;;;;;19.04;59.24;100090.59;7400205;19;20060;-65
2023/07/02 08:58:27;;;;;;;3.45;3.15;;;;;;;18.85;61.14;100088.28;7396813;19;20031;-65
2023/07/02 09:01:09;;;;;;;5.35;3.40;;;;;;;18.59;64.76;100137.81;7399808;19;20022;-66
2023/07/02 09:03:39;;;;;;;4.38;3.50;;;;;;;18.24;66.36;100134.69;7398421;19;20521;-65
2023/07/02 09:06:09;;;;;;;3.60;3.30;;;;;;;17.83;67.14;100145.19;7399595;19;20393;-65
2023/07/02 09:08:38;;;;;;;4.88;4.43;;;;;;;17.35;70.36;100134.84;7397082;19;20035;-65
2023/07/02 09:11:14;;;;;;;4.88;4.15;;;;;;;16.97;73.13;100125.53;7399519;19;20018;-65
2023/07/02 09:13:50;;;;;;;9.07;6.63;;;;;;;16.63;75.73;100127.50;7397552;19;20018;-65
2023/07/02 09:16:29;;;;;;;6.63;4.90;;;;;;;16.43;74.56;100126.81;7399126;19;20018;-64
2023/07/02 09:19:05;;;;;;;5.70;4.50;;;;;;;16.32;76.47;100113.31;7397070;19;20391;-64
2023/07/02 09:21:45;;;;;;;7.70;5.10;;;;;;;16.23;78.51;100108.53;7399504;19;20018;-64
2023/07/02 09:24:16;;;;;;;4.78;4.38;;;;;;;16.19;76.37;100107.84;7396421;19;20476;-65
2023/07/02 09:26:46;;;;;;;6.90;5.15;;;;;;;16.19;76.55;100105.22;7399439;19;20025;-64
2023/07/02 09:29:15;;;;;;;5.82;5.22;;;;;;;16.23;76.61;100096.16;7397167;19;20018;-65
2023/07/02 09:31:49;;;;;;;8.35;4.70;;;;;;;16.28;76.80;100101.19;7398957;19;20019;-65
2023/07/02 09:34:18;;;;;;;11.23;6.32;;;;;;;16.33;76.68;100101.78;7397359;19;20022;-64
2023/07/02 09:36:47;;;;;;;7.90;5.55;;;;;;;16.39;76.69;100105.88;7398242;19;20025;-66
2023/07/02 09:39:17;;;;;;;9.63;8.45;;;;;;;16.49;76.94;100103.56;7398508;19;20019;-65
2023/07/02 09:41:46;;;;;;;8.13;7.32;;;;;;;16.54;76.76;100104.16;7396347;19;20010;-65
2023/07/02 09:44:16;;;;;;;5.70;5.13;;;;;;;16.62;76.55;100107.22;7396307;19;20018;-65
2023/07/02 09:46:55;;;;;;;5.93;5.40;;;;;;;16.73;76.65;100109.25;7398474;19;20035;-64
2023/07/02 09:49:25;;;;;;;6.32;5.22;;;;;;;16.88;76.81;100115.47;7396437;19;20015;-67
2023/07/02 09:51:54;;;;;;;5.45;4.90;;;;;;;17.04;76.85;100107.50;7397821;19;20015;-66
2023/07/02 09:54:22;;;;;;;6.35;5.38;;;;;;;17.22;76.98;100113.50;7396962;19;20035;-66
2023/07/02 09:56:51;;;;;;;6.40;4.32;;;;;;;17.38;76.67;100110.81;7396150;19;20095;-65
2023/07/02 09:59:26;;;;;;;6.15;5.28;;;;;;;17.55;76.17;100112.41;7395719;19;20014;-67
2023/07/02 10:02:04;;;;;;;5.30;4.88;;;;;;;17.71;75.54;100115.81;7397699;19;20034;-66
2023/07/02 10:04:42;;;;;;;10.38;5.13;;;;;;;17.87;74.44;100114.91;7396163;19;20039;-65
2023/07/02 10:07:11;;;;;;;6.05;4.45;;;;;;;18.03;73.13;100110.38;7396432;19;20019;-65
2023/07/02 10:09:42;;;;;;;9.73;4.75;;;;;;;18.21;72.55;100118.09;7396097;19;20039;-66
2023/07/02 10:12:21;;;;;;;5.55;4.30;;;;;;;18.37;71.23;100112.66;7397422;19;20014;-66
2023/07/02 10:14:51;;;;;;;13.10;8.15;;;;;;;18.51;68.54;100111.75;7395279;19;20031;-66
2023/07/02 10:17:33;;;;;;;9.38;4.50;;;;;;;18.61;65.93;100104.06;7397484;19;20029;-66
2023/07/02 10:20:05;;;;;;;12.70;5.10;;;;;;;18.68;64.44;100124.78;7397740;19;20015;-64
2023/07/02 10:22:45;;;;;;;9.77;5.18;;;;;;;18.73;63.63;100109.41;7396522;19;20015;-66
2023/07/02 10:25:13;;;;;;;9.25;5.05;;;;;;;18.81;63.04;100114.22;7397039;19;20031;-66
2023/07/02 10:27:43;;;;;;;11.65;5.05;;;;;;;18.87;61.79;100110.31;7395414;19;20031;-66
2023/07/02 10:30:13;;;;;;;11.43;5.25;;;;;;;18.88;61.64;100107.53;7396998;19;20041;-66
2023/07/02 10:32:44;;;;;;;15.18;5.47;;;;;;;18.94;60.65;100108.09;7395123;19;20019;-66
2023/07/02 10:35:18;;;;;;;12.90;5.38;;;;;;;19.01;59.96;100118.22;7395123;19;20375;-67
2023/07/02 10:37:48;;;;;;;12.90;5.10;;;;;;;19.13;60.43;100121.00;7396572;19;20014;-67
2023/07/02 10:40:16;;;;;;;9.75;5.47;;;;;;;19.23;59.57;100122.09;7394851;19;20371;-66
2023/07/02 10:42:49;;;;;;;10.85;5.68;;;;;;;19.34;58.83;100110.72;7396017;19;20018;-67
2023/07/02 10:45:18;;;;;;;8.85;5.40;;;;;;;19.43;58.06;100119.88;7396470;19;20506;-66
2023/07/02 10:47:49;;;;;;;11.90;5.30;;;;;;;19.49;57.77;100127.44;7396597;19;20014;-66
2023/07/02 10:50:19;;;;;;;10.10;5.65;;;;;;;19.58;57.46;100125.97;7396317;19;20018;-66
2023/07/02 10:52:50;;;;;;;15.85;6.18;;;;;;;19.63;57.26;100108.69;7394473;19;20035;-66
2023/07/02 10:55:21;;;;;;;11.93;5.85;;;;;;;19.64;55.97;100130.84;7395440;19;20027;-67
2023/07/02 10:57:51;;;;;;;11.70;5.50;;;;;;;19.76;57.40;100108.69;7395894;19;20015;-66
2023/07/02 11:00:20;;;;;;;10.13;5.55;;;;;;;19.87;57.09;100099.97;7395012;19;20477;-66
2023/07/02 11:02:52;;;;;;;11.27;6.60;;;;;;;19.97;54.04;100101.03;7394100;19;20018;-66
2023/07/02 11:05:20;;;;;;;12.00;6.00;;;;;;;20.11;55.85;100101.84;7393832;19;20011;-68
2023/07/02 11:07:56;;;;;;;9.27;5.32;;;;;;;20.23;54.59;100095.63;7395857;19;20024;-69
2023/07/02 11:10:26;;;;;;;11.20;5.47;;;;;;;20.27;54.71;100104.25;7395127;19;20499;-66
2023/07/02 11:12:54;;;;;;;14.27;5.65;;;;;;;20.28;53.81;100120.13;7394589;19;20018;-68
2023/07/02 11:15:23;;;;;;;16.27;6.63;;;;;;;20.26;53.11;100119.38;7393938;19;20086;-68
2023/07/02 11:17:54;;;;;;;12.45;6.00;;;;;;;20.26;53.35;100098.06;7395775;19;20019;-67
2023/07/02 11:20:22;;;;;;;10.73;6.15;;;;;;;20.37;53.74;100097.28;7395981;19;20098;-68
2023/07/02 11:22:51;;;;;;;15.00;6.28;;;;;;;20.46;53.59;100093.09;7393847;19;20038;-68
2023/07/02 11:25:21;;;;;;;10.38;5.38;;;;;;;20.53;53.56;100096.16;7396104;19;20022;-68
2023/07/02 11:27:50;;;;;;;12.00;6.13;;;;;;;20.62;50.89;100101.66;7395383;19;20033;-67
2023/07/02 11:30:18;;;;;;;11.98;5.90;;;;;;;20.68;49.19;100090.53;7392988;19;20491;-67
2023/07/02 11:32:51;;;;;;;10.60;6.00;;;;;;;20.77;47.62;100118.34;7394450;19;20028;-67
2023/07/02 11:35:23;;;;;;;10.43;5.90;;;;;;;20.85;47.68;100085.78;7397911;19;20011;-67
2023/07/02 11:37:51;;;;;;;10.65;5.70;;;;;;;20.95;48.23;100084.13;7402295;19;20015;-67
2023/07/02 11:40:21;;;;;;;11.32;5.75;;;;;;;21.13;47.83;100089.03;7399277;19;20027;-67